Warning: Javascript must be enabled to use all the features on this page!


Page Loading - Please Wait...

Click to hideNews Bulletins

Peak Streamflow for the Nation

USGS 14162200 BLUE RIVER AT BLUE RIVER, OR

Lane County, Oregon
Hydrologic Unit Code 17090004
Latitude  44°09'45", Longitude 122°19'55" NAD27
Drainage area 87.7  square miles
Gage datum 1,056.53 feet above NGVD29
Output formats
Table
Graph
Tab-separated file
peakfq (watstore) format
Reselect output format
Water
Year
Date Gage
Height
(feet)
Stream-
flow
(cfs)
1966 1966-03-09 4.973,6 3,3101
1967 1967-01-28 8.19 5,340
1968 1968-02-23 8.93 7,2706
1969 1968-12-16 8.53 4,9706
1970 1970-01-29 7.97 4,0606
1971 1971-01-22 7.98 3,9406
1972 1971-12-11 7.81 3,7006
1973 1972-12-21 7.88 3,5406
1974 1974-01-22 8.11 3,8506
1975 1974-12-23 7.93 3,5606
1976 1975-12-01 7.53 3,0506
1977 1977-05-10 4.49 5906
1978 1977-11-28 7.90 3,5206
1979 1978-12-04 7.60 3,1106
1980 1980-01-21 8.10 3,6206
1981 1980-12-31 8.10 3,6206
1982 1982-02-24 8.02 3,5206
1983 1983-01-06 8.13 3,6606
1984 1984-02-15 7.49 2,8606
1985 1984-12-02 7.65 3,0606
1986 1986-02-25 8.05 3,5606
1987 1986-11-22 7.56 2,9506
1988 1987-12-10 7.93 3,4106
1989 1988-11-23 7.64 3,0406
1990 1990-01-10 7.66 3,0706
1991 1991-01-12 7.81 3,2506
1992 1991-11-26 7.74 3,1706
1993 1993-03-22 7.93 3,4106
1994 1994-01-03 7.13 2,5106
1995 1995-01-15 7.64 3,0406
1996 1996-02-15 8.23 3,8706
1997 1996-12-16 8.29 3,9006
1998 1998-01-18 7.32 2,7306
1999 1998-12-31 8.15 3,7606
2000 1999-11-30 7.61 3,0606
2001 2000-12-23 6.23 1,6606
2002 2001-12-17 7.60 3,0506
2003 2003-01-27 7.50 2,9306
2004 2003-12-16 7.37 2,7806
2005 2004-12-11 6.75 2,1306
2006 2006-01-25 7.96 3,6006
2007 2006-12-18 7.64 3,2006
2008 2008-05-18 7.19 2,6606
2009 2009-01-04 7.58 3,1106
2010 2010-06-04 6.90 2,3406
2011 2010-12-17 7.70 3,2606
2012 2012-01-26 8.35 4,1106
2013 2012-12-06 6.73 2,1706
2014 2014-02-19 7.96 3,5006
2015 2014-12-24 8.17 3,7806
2016 2015-12-13 7.14 2,5606
2017 2017-02-10 7.19 2,6206
2018 2017-11-24 6.99 2,4006
2019 2019-04-10 8.18 3,8606
2020 2020-01-30 6.95 2,3506
?
  Peak Gage-Height Qualification Codes.
?
  Peak Streamflow Qualification Codes.